Pagrindinis puslapis
METAR-TAF:

METAR-TAF

Oro uostai :

Wales, Aliaska, Jungtinės Amerikos Valstijos

platuma: 65-37-21N, ilguma: 168-05-42W, Aukštis: 7 m

Dabartinis oras

Ataskaita buvo paskelbta 52 minutes, ne 07:56 UTC
Vėjas 19 kt iš Šiaurės
Temperatūra 7°C
Drėgmė 93%
Slėgis 1011 hPa
Matomumas: 16.1 km
Apsiniaukę ne aukštis 700 ft

METAR: PAIW 160756Z AUTO 35019KT 10SM OVC007 07/06 A2984 RMK AO2 CIG 006V011 SLP107 T00720061

Laikas: 00:48 (08:48 UTC)


TAF: trūkstamas

Orai ataskaitas ir orų prognozės (METAR, TAF).

turimą stotys yra geltonos ir raudonos taškus žemėlapyje.

Perkelti pele per norėdami pamatyti stoties vardą.

Tada spustelėkite, norėdami matyti oro stebėjimo ir prognozės.

Norėdami pakeisti žemėlapį: spustelėkite ant žalios mygtukų su juodo kryžiaus žemyn,; žalią mygtuką su brūkšneliu, jei norite nutolinti; arba žalių rodyklių gretimoms žemėlapius.


METAR-TAF: